Strona główna
METAR-TAF:

METAR-TAF

Lotnisko :

Hagåtña, Guam, Stany Zjednoczone

Antonio B. Won Pat International Airport

Szerokość geograficzna: 13-29N, Długość geograficzna: 144-48E, wysokość: 91 m

Aktualna obserwacja pogody

Raport powstał 38 minut temu, godzina 04:54 UTC
Wiatr 16 kt od wschodnio-północny wschód w porywach dochodzący do 21 kt
Temperatura 31°C
Wilgotność 59%
Ciśnienie 1010 hPa
Widzialność: 16.1 km
Mało chmury na wysokości 3000 ft

METAR: PGUM 180454Z 06016G21KT 10SM FEW030 31/22 A2983 RMK AO2 SLP092 T03060222

czas: 15:32 (05:32 UTC)

Prognoza

Raport powstał 6 godziny i 7 minut temu, godzina 23:25 UTC
Prognoza ważna od 18 godzina 00 UTC do 19 godzina 06 UTC
Wiatr 18 kt od wschód
Widzialność: 10 km
Rozproszone chmury na wysokości 2400 ft
Rozproszone chmury na wysokości 4000 ft
Od 18 godzina 0900 UTC
Wiatr 11 kt od wschodnio-północny wschód
Widzialność: 10 km
Rozproszone chmury na wysokości 2000 ft

TAF: PGUM 172325Z 1800/1906 08018KT P6SM SCT024 SCT040 FM180900 07011KT P6SM SCT020

Obserwacja i prognoza pogody dla ponad 4000 lotnisk (raport METAR i TAF).

Dostępne stacje oznaczono żółtymi i czerwonymi punktami na mapie.

Najedź kursorem aby zobaczyć nazwę stacji.

Kliknij aby zobaczyć obserwacje i prognozy pogody.

Aby zmienić mapę: kliknij na zielony przycisk z czarnym krzyżykiem, aby powiększyć; na zielony przycisk z myślnikiem, aby pomniejszyć; na zielone strzałki, aby przejść do map sąsiednich.


METAR-TAF: